.
WxDataArchive / Data Records for 2011-12-06
2011-12-05 December 2011 2011-12-07

Data Records for Tuesday, 06 December 2011

Time	Temp	Chill	HIndex	Humid	Dewpt	 Wind 	HiWind	WindDir	Rain 	Barom 
-----	----	-----	------	-----	-----	------	------	-------	-----	----- 
00:00	32.2	32.2	32.2	94	30.7	0	1	135	0.00	30.220 
00:05	32.2	32.2	32.2	94	30.7	0	2	135	0.00	30.220 
00:10	32.1	32.1	32.1	94	30.6	0	1	112	0.00	30.220 
00:15	32.1	32.1	32.1	94	30.6	0	2	112	0.00	30.223 
00:20	32.1	32.1	32.1	94	30.6	0	1	112	0.00	30.223 
00:25	32.1	32.1	32.1	94	30.6	0	1	68	0.00	30.223 
00:30	32.1	32.1	32.1	94	30.6	0	1	68	0.00	30.223 
00:35	31.9	31.9	31.9	94	30.4	0	1	68	0.00	30.223 
00:40	31.9	31.9	31.9	93	30.1	0	3	68	0.00	30.223 
00:45	31.9	31.9	31.9	93	30.1	0	2	248	0.00	30.224 
00:50	31.9	31.9	31.9	93	30.1	0	4	68	0.00	30.224 
00:55	31.9	31.9	31.9	93	30.1	0	1	68	0.00	30.224 
01:00	31.9	31.9	31.9	93	30.1	0	2	248	0.00	30.219 
01:05	31.8	31.8	31.8	93	30.0	0	2	248	0.00	30.219 
01:10	31.9	31.9	31.9	93	30.1	0	2	248	0.00	30.219 
01:15	31.9	31.9	31.9	93	30.1	0	2	248	0.00	30.211 
01:20	31.9	31.9	31.9	93	30.1	0	1	338	0.00	30.211 
01:25	31.9	31.9	31.9	93	30.1	0	2	0	0.00	30.211 
01:30	31.9	31.9	31.9	93	30.1	0	2	248	0.00	30.214 
01:35	31.9	31.9	31.9	93	30.1	0	3	248	0.00	30.214 
01:40	31.9	31.9	31.9	93	30.1	0	4	90	0.00	30.214 
01:45	31.9	31.9	31.9	92	29.8	0	1	270	0.00	30.218 
01:50	31.9	31.9	31.9	92	29.8	0	1	22	0.00	30.218 
01:55	31.9	31.9	31.9	92	29.8	0	1	22	0.00	30.218 
02:00	31.9	31.9	31.9	92	29.8	0	2	22	0.00	30.221 
02:05	32.1	32.1	32.1	92	30.0	0	3	270	0.00	30.221 
02:10	32.1	32.1	32.1	92	30.0	0	2	270	0.00	30.221 
02:15	32.1	32.1	32.1	92	30.0	0	1	270	0.00	30.219 
02:20	32.1	32.1	32.1	92	30.0	0	1	270	0.00	30.219 
02:25	32.2	32.2	32.2	91	29.9	0	1	22	0.00	30.219 
02:30	32.2	32.2	32.2	91	29.9	0	2	22	0.00	30.223 
02:35	32.2	32.2	32.2	91	29.9	0	2	22	0.00	30.223 
02:40	32.2	32.2	32.2	91	29.9	0	1	0	0.00	30.223 
02:45	32.2	32.2	32.2	91	29.9	0	3	45	0.00	30.222 
02:50	32.2	32.2	32.2	91	29.9	0	2	45	0.00	30.222 
02:55	32.4	32.4	32.4	91	30.1	0	1	45	0.00	30.222 
03:00	32.4	32.4	32.4	91	30.1	0	1	45	0.00	30.219 
03:05	32.4	32.4	32.4	91	30.1	0	2	45	0.00	30.219 
03:10	32.4	32.4	32.4	91	30.1	0	3	45	0.00	30.219 
03:15	32.4	32.4	32.4	91	30.1	0	2	45	0.00	30.213 
03:20	32.4	32.4	32.4	90	29.8	0	1	45	0.00	30.213 
03:25	32.4	32.4	32.4	90	29.8	0	1	45	0.00	30.213 
03:30	32.2	32.2	32.2	90	29.6	0	2	45	0.00	30.211 
03:35	32.2	32.2	32.2	90	29.6	0	1	45	0.00	30.211 
03:40	32.2	32.2	32.2	90	29.6	0	2	112	0.00	30.211 
03:45	32.2	32.2	32.2	90	29.6	0	2	112	0.00	30.197 
03:50	32.2	32.2	32.2	90	29.6	0	2	112	0.00	30.197 
03:55	32.2	32.2	32.2	89	29.3	1	3	112	0.00	30.197 
04:00	32.2	32.2	32.2	89	29.3	0	3	112	0.00	30.191 
04:05	32.2	32.2	32.2	89	29.3	0	2	112	0.00	30.191 
04:10	32.1	32.1	32.1	89	29.2	0	1	112	0.00	30.191 
04:15	31.9	31.9	31.9	89	29.0	0	1	112	0.00	30.195 
04:20	31.8	31.8	31.8	89	28.9	0	1	112	0.00	30.195 
04:25	31.8	31.8	31.8	89	28.9	0	2	338	0.00	30.195 
04:30	31.8	31.8	31.8	89	28.9	0	1	338	0.00	30.204 
04:35	31.8	31.8	31.8	89	28.9	0	1	338	0.00	30.204 
04:40	31.8	31.8	31.8	89	28.9	0	2	338	0.00	30.204 
04:45	31.8	31.8	31.8	89	28.9	0	1	338	0.00	30.206 
04:50	31.8	31.8	31.8	89	28.9	0	2	270	0.00	30.206 
04:55	31.6	31.6	31.6	88	28.5	0	3	0	0.00	30.206 
05:00	31.6	31.6	31.6	88	28.5	0	1	292	0.00	30.208 
05:05	31.6	31.6	31.6	88	28.5	0	2	338	0.00	30.208 
05:10	31.6	31.6	31.6	88	28.5	0	1	338	0.00	30.208 
05:15	31.6	31.6	31.6	88	28.5	0	1	338	0.00	30.209 
05:20	31.6	31.6	31.6	88	28.5	0	0	---	0.00	30.209 
05:25	31.6	31.6	31.6	88	28.5	0	2	45	0.00	30.209 
05:30	31.5	31.5	31.5	88	28.4	0	2	315	0.00	30.208 
05:35	31.5	31.5	31.5	88	28.4	0	2	338	0.00	30.208 
05:40	31.3	31.3	31.3	87	27.9	0	3	270	0.00	30.208 
05:45	31.3	31.3	31.3	87	27.9	0	2	270	0.00	30.215 
05:50	31.3	31.3	31.3	86	27.6	1	4	270	0.00	30.215 
05:55	31.3	31.3	31.3	86	27.6	0	3	45	0.00	30.215 
06:00	31.3	31.3	31.3	86	27.6	0	2	45	0.00	30.213 
06:05	31.3	31.3	31.3	86	27.6	0	1	45	0.00	30.213 
06:10	31.3	31.3	31.3	86	27.6	0	2	45	0.00	30.213 
06:15	31.2	31.2	31.2	86	27.5	0	5	292	0.00	30.214 
06:20	31.2	31.2	31.2	86	27.5	0	2	338	0.00	30.214 
06:25	31.2	31.2	31.2	85	27.2	0	3	22	0.00	30.214 
06:30	31.2	31.2	31.2	85	27.2	0	3	248	0.00	30.217 
06:35	31.2	31.2	31.2	85	27.2	0	3	22	0.00	30.217 
06:40	31.2	31.2	31.2	85	27.2	0	3	0	0.00	30.217 
06:45	31.2	31.2	31.2	85	27.2	0	2	0	0.00	30.224 
06:50	31.2	31.2	31.2	85	27.2	0	2	292	0.00	30.224 
06:55	31.2	31.2	31.2	85	27.2	0	2	68	0.00	30.224 
07:00	31.2	31.2	31.2	85	27.2	0	1	135	0.00	30.222 
07:05	31.0	31.0	31.0	85	27.0	0	2	292	0.00	30.222 
07:10	31.0	31.0	31.0	84	26.7	0	2	22	0.00	30.222 
07:15	31.0	31.0	31.0	84	26.7	0	1	22	0.00	30.219 
07:20	31.0	31.0	31.0	84	26.7	0	1	22	0.00	30.219 
07:25	31.0	31.0	31.0	84	26.7	0	2	248	0.00	30.219 
07:30	31.0	31.0	31.0	84	26.7	0	2	0	0.00	30.226 
07:35	31.0	31.0	31.0	84	26.7	1	2	0	0.00	30.226 
07:40	30.9	30.9	30.9	83	26.4	0	2	270	0.00	30.226 
07:45	30.9	30.9	30.9	83	26.4	0	1	270	0.00	30.221 
07:50	31.0	31.0	31.0	84	26.7	0	2	270	0.00	30.221 
07:55	30.9	30.9	30.9	84	26.6	0	2	0	0.00	30.221 
08:00	30.9	30.9	30.9	84	26.6	0	2	248	0.00	30.222 
08:05	30.9	30.9	30.9	84	26.6	0	3	248	0.00	30.222 
08:10	30.9	30.9	30.9	84	26.6	0	3	315	0.00	30.222 
08:15	30.9	30.9	30.9	84	26.6	0	2	0	0.00	30.229 
08:20	30.9	30.9	30.9	84	26.6	0	2	0	0.00	30.229 
08:25	30.9	30.9	30.9	83	26.4	0	2	0	0.00	30.229 
08:30	30.9	30.9	30.9	83	26.4	0	2	0	0.00	30.229 
08:35	30.9	30.9	30.9	83	26.4	0	2	315	0.00	30.229 
08:40	30.9	30.9	30.9	83	26.4	0	1	315	0.00	30.229 
08:45	30.9	30.9	30.9	84	26.6	0	2	0	0.00	30.231 
08:50	30.9	30.9	30.9	84	26.6	0	2	0	0.00	30.231 
08:55	30.9	30.9	30.9	84	26.6	0	2	68	0.00	30.231 
09:00	31.0	31.0	31.0	83	26.5	0	2	68	0.01	30.239 
09:05	31.0	31.0	31.0	84	26.7	0	2	68	0.00	30.239 
09:10	31.0	31.0	31.0	84	26.7	0	2	315	0.00	30.239 
09:15	31.0	31.0	31.0	84	26.7	0	2	0	0.00	30.240 
09:20	31.0	31.0	31.0	84	26.7	0	3	0	0.00	30.240 
09:25	31.0	31.0	31.0	84	26.7	0	2	112	0.00	30.240 
09:30	31.0	31.0	31.0	84	26.7	0	2	90	0.00	30.237 
09:35	31.2	31.2	31.2	84	26.9	0	2	90	0.00	30.237 
09:40	31.2	31.2	31.2	84	26.9	0	2	90	0.00	30.237 
09:45	31.2	31.2	31.2	84	26.9	0	1	90	0.00	30.245 
09:50	31.2	31.2	31.2	84	26.9	0	1	90	0.00	30.245 
09:55	31.2	31.2	31.2	84	26.9	0	1	90	0.00	30.245 
10:00	31.2	31.2	31.2	84	26.9	0	2	90	0.00	30.245 
10:05	31.2	31.2	31.2	84	26.9	0	1	90	0.00	30.245 
10:10	31.2	31.2	31.2	84	26.9	0	2	45	0.00	30.245 
10:15	31.0	31.0	31.0	84	26.7	0	1	45	0.00	30.245 
10:20	31.2	31.2	31.2	84	26.9	0	1	45	0.00	30.245 
10:25	31.0	31.0	31.0	84	26.7	0	2	22	0.00	30.245 
10:30	31.0	31.0	31.0	84	26.7	0	1	22	0.00	30.245 
10:35	31.2	31.2	31.2	85	27.2	0	1	22	0.00	30.245 
10:40	31.2	31.2	31.2	85	27.2	0	1	22	0.00	30.245 
10:45	31.2	31.2	31.2	85	27.2	0	2	22	0.00	30.242 
10:50	31.3	31.3	31.3	85	27.3	0	2	270	0.00	30.242 
10:55	31.3	31.3	31.3	85	27.3	0	2	270	0.00	30.242 
11:00	31.5	31.5	31.5	85	27.5	0	2	338	0.00	30.230 
11:05	31.5	31.5	31.5	85	27.5	0	1	338	0.00	30.230 
11:10	31.5	31.5	31.5	86	27.8	0	3	270	0.00	30.230 
11:15	31.5	31.5	31.5	86	27.8	0	2	270	0.00	30.227 
11:20	31.3	31.3	31.3	86	27.6	0	1	270	0.00	30.227 
11:25	31.2	31.2	31.2	87	27.8	0	3	270	0.00	30.227 
11:30	31.2	31.2	31.2	87	27.8	0	2	292	0.00	30.233 
11:35	31.3	31.3	31.3	88	28.2	0	3	292	0.00	30.233 
11:40	31.5	31.5	31.5	88	28.4	0	2	22	0.00	30.233 
11:45	31.3	31.3	31.3	88	28.2	0	2	22	0.01	30.198 
11:50	31.3	31.3	31.3	88	28.2	0	4	45	0.00	30.198 
11:55	31.5	31.5	31.5	88	28.4	1	5	112	0.01	30.198 
12:00	31.5	31.5	31.5	88	28.4	0	2	68	0.00	30.182 
12:05	31.5	31.5	31.5	87	28.1	1	4	135	0.00	30.182 
12:10	31.5	31.5	31.5	87	28.1	1	3	0	0.00	30.182 
12:15	31.8	31.8	31.8	87	28.4	0	2	315	0.00	30.191 
12:20	31.9	31.9	31.9	86	28.2	0	3	22	0.00	30.191 
12:25	31.9	31.9	31.9	85	27.9	0	2	22	0.00	30.191 
12:30	32.2	32.2	32.2	85	28.2	0	2	22	0.01	30.183 
12:35	32.4	32.4	32.4	84	28.1	0	2	292	0.00	30.183 
12:40	32.5	32.5	32.5	84	28.2	0	3	292	0.00	30.183 
12:45	32.7	32.7	32.7	84	28.4	0	3	0	0.01	30.180 
12:50	32.8	32.8	32.8	83	28.2	0	3	45	0.00	30.180 
12:55	32.9	32.9	32.9	83	28.3	0	3	90	0.00	30.180 
13:00	33.1	33.1	33.1	83	28.5	0	1	68	0.00	30.171 
13:05	33.2	33.2	33.2	83	28.6	0	2	68	0.00	30.171 
13:10	33.2	33.2	33.2	82	28.3	0	3	68	0.01	30.171 
13:15	33.2	33.2	33.2	82	28.3	0	1	68	0.00	30.171 
13:20	33.2	33.2	33.2	82	28.3	0	1	68	0.00	30.171 
13:25	33.2	33.2	33.2	82	28.3	0	2	68	0.00	30.171 
13:30	33.2	33.2	33.2	82	28.3	0	2	68	0.00	30.169 
13:35	33.2	33.2	33.2	82	28.3	0	1	68	0.00	30.169 
13:40	33.2	33.2	33.2	82	28.3	0	1	68	0.01	30.169 
13:45	33.2	33.2	33.2	82	28.3	0	1	68	0.00	30.177 
13:50	33.4	33.4	33.4	83	28.8	0	0	---	0.00	30.177 
13:55	33.4	33.4	33.4	83	28.8	0	1	68	0.00	30.177 
14:00	33.2	33.2	33.2	82	28.3	0	2	68	0.00	30.170 
14:05	33.1	33.1	33.1	82	28.2	0	2	68	0.00	30.170 
14:10	33.1	33.1	33.1	82	28.2	0	3	68	0.00	30.170 
14:15	33.1	33.1	33.1	82	28.2	1	2	270	0.00	30.166 
14:20	32.9	32.9	32.9	83	28.3	0	2	22	0.00	30.166 
14:25	32.9	32.9	32.9	83	28.3	0	1	22	0.01	30.166 
14:30	32.9	32.9	32.9	83	28.3	0	2	22	0.00	30.159 
14:35	33.1	33.1	33.1	84	28.8	0	2	0	0.00	30.159 
14:40	33.1	33.1	33.1	83	28.5	0	3	0	0.00	30.159 
14:45	33.1	33.1	33.1	83	28.5	0	2	292	0.00	30.152 
14:50	33.2	33.2	33.2	84	28.9	0	1	292	0.00	30.152 
14:55	33.1	33.1	33.1	84	28.8	0	2	292	0.00	30.152 
15:00	33.1	33.1	33.1	83	28.5	0	2	292	0.00	30.150 
15:05	33.1	33.1	33.1	84	28.8	0	1	292	0.00	30.150 
15:10	33.1	33.1	33.1	84	28.8	0	1	292	0.00	30.150 
15:15	33.1	33.1	33.1	84	28.8	0	1	292	0.00	30.146 
15:20	33.1	33.1	33.1	84	28.8	0	1	292	0.00	30.146 
15:25	33.1	33.1	33.1	84	28.8	0	1	292	0.00	30.146 
15:30	33.1	33.1	33.1	83	28.5	0	1	292	0.00	30.143 
15:35	33.1	33.1	33.1	83	28.5	0	2	292	0.00	30.143 
15:40	32.9	32.9	32.9	83	28.3	0	2	292	0.00	30.143 
15:45	32.9	32.9	32.9	83	28.3	0	2	292	0.00	30.150 
15:50	32.8	32.8	32.8	83	28.2	0	1	292	0.00	30.150 
15:55	32.9	32.9	32.9	83	28.3	0	1	292	0.00	30.150 
16:00	32.9	32.9	32.9	83	28.3	0	2	292	0.00	30.149 
16:05	32.9	32.9	32.9	83	28.3	0	2	292	0.00	30.149 
16:10	32.8	32.8	32.8	83	28.2	0	2	292	0.00	30.149 
16:15	32.8	32.8	32.8	83	28.2	1	3	292	0.00	30.149 
16:20	32.8	32.8	32.8	83	28.2	0	3	292	0.00	30.149 
16:25	32.8	32.8	32.8	83	28.2	0	3	292	0.00	30.149 
16:30	32.8	32.8	32.8	83	28.2	0	1	292	0.00	30.151 
16:35	32.8	32.8	32.8	83	28.2	0	2	292	0.00	30.151 
16:40	32.8	32.8	32.8	83	28.2	0	1	292	0.00	30.151 
16:45	32.7	32.7	32.7	83	28.1	0	2	292	0.00	30.150 
16:50	32.7	32.7	32.7	83	28.1	0	0	---	0.00	30.150 
16:55	32.7	32.7	32.7	83	28.1	0	0	---	0.00	30.150 
17:00	32.7	32.7	32.7	83	28.1	0	0	---	0.00	30.148 
17:05	32.7	32.7	32.7	83	28.1	0	0	---	0.00	30.148 
17:10	32.7	32.7	32.7	84	28.4	0	0	---	0.00	30.148 
17:15	32.7	32.7	32.7	84	28.4	0	1	292	0.00	30.149 
17:20	32.5	32.5	32.5	84	28.2	0	1	292	0.00	30.149 
17:25	32.5	32.5	32.5	84	28.2	0	2	292	0.00	30.149 
17:30	32.5	32.5	32.5	84	28.2	0	1	292	0.00	30.144 
17:35	32.5	32.5	32.5	84	28.2	0	1	292	0.00	30.144 
17:40	32.5	32.5	32.5	84	28.2	0	1	292	0.00	30.144 
17:45	32.4	32.4	32.4	85	28.4	0	1	292	0.00	30.145 
17:50	32.4	32.4	32.4	85	28.4	0	1	292	0.00	30.145 
17:55	32.4	32.4	32.4	85	28.4	0	1	292	0.00	30.145 
18:00	32.4	32.4	32.4	85	28.4	1	3	292	0.00	30.151 
18:05	32.2	32.2	32.2	86	28.5	0	2	292	0.00	30.151 
18:10	32.2	32.2	32.2	86	28.5	0	2	292	0.00	30.151 
18:15	32.2	32.2	32.2	86	28.5	0	2	292	0.00	30.157 
18:20	32.2	32.2	32.2	87	28.8	0	1	292	0.00	30.157 
18:25	32.1	32.1	32.1	87	28.7	0	1	292	0.00	30.157 
18:30	32.1	32.1	32.1	87	28.7	0	3	292	0.00	30.163 
18:35	31.9	31.9	31.9	87	28.5	1	3	292	0.00	30.163 
18:40	31.9	31.9	31.9	88	28.8	1	3	292	0.00	30.163 
18:45	31.8	31.8	31.8	88	28.7	0	1	315	0.00	30.166 
18:50	31.8	31.8	31.8	88	28.7	0	2	315	0.00	30.166 
18:55	31.8	31.8	31.8	88	28.7	0	2	315	0.00	30.166 
19:00	31.8	31.8	31.8	89	28.9	0	2	315	0.00	30.166 
19:05	31.6	31.6	31.6	89	28.7	0	2	315	0.00	30.166 
19:10	31.5	31.5	31.5	89	28.6	0	1	315	0.00	30.166 
19:15	31.5	31.5	31.5	90	28.9	0	1	315	0.00	30.166 
19:20	31.5	31.5	31.5	90	28.9	0	1	315	0.00	30.166 
19:25	31.5	31.5	31.5	90	28.9	0	2	315	0.00	30.166 
19:30	31.5	31.5	31.5	90	28.9	0	1	315	0.00	30.162 
19:35	31.5	31.5	31.5	91	29.2	0	0	---	0.00	30.162 
19:40	31.3	31.3	31.3	91	29.0	0	1	315	0.00	30.162 
19:45	31.3	31.3	31.3	91	29.0	0	1	315	0.00	30.161 
19:50	31.2	31.2	31.2	91	28.9	0	0	---	0.00	30.161 
19:55	31.2	31.2	31.2	91	28.9	0	2	315	0.00	30.161 
20:00	31.0	31.0	31.0	91	28.7	0	2	315	0.00	30.157 
20:05	30.9	30.9	30.9	91	28.6	0	1	315	0.00	30.157 
20:10	30.9	30.9	30.9	91	28.6	0	1	315	0.00	30.157 
20:15	30.9	30.9	30.9	91	28.6	0	0	---	0.00	30.152 
20:20	30.9	30.9	30.9	91	28.6	0	1	315	0.00	30.152 
20:25	30.7	30.7	30.7	91	28.4	0	2	315	0.00	30.152 
20:30	30.7	30.7	30.7	91	28.4	0	2	315	0.00	30.149 
20:35	30.7	30.7	30.7	91	28.4	0	1	315	0.00	30.149 
20:40	30.7	30.7	30.7	91	28.4	0	1	315	0.00	30.149 
20:45	30.7	30.7	30.7	91	28.4	0	2	315	0.00	30.136 
20:50	30.7	30.7	30.7	91	28.4	0	1	315	0.00	30.136 
20:55	30.7	30.7	30.7	91	28.4	0	2	315	0.00	30.136 
21:00	30.7	30.7	30.7	91	28.4	0	1	315	0.00	30.135 
21:05	30.7	30.7	30.7	91	28.4	0	0	---	0.00	30.135 
21:10	30.6	30.6	30.6	91	28.3	0	2	315	0.00	30.135 
21:15	30.6	30.6	30.6	91	28.3	0	2	315	0.00	30.132 
21:20	30.6	30.6	30.6	91	28.3	0	1	315	0.00	30.132 
21:25	30.6	30.6	30.6	91	28.3	0	2	315	0.00	30.132 
21:30	30.6	30.6	30.6	91	28.3	0	1	315	0.00	30.134 
21:35	30.6	30.6	30.6	91	28.3	0	1	315	0.00	30.134 
21:40	30.6	30.6	30.6	91	28.3	0	2	315	0.00	30.134 
21:45	30.6	30.6	30.6	91	28.3	0	1	315	0.00	30.135 
21:50	30.6	30.6	30.6	90	28.0	0	1	315	0.00	30.135 
21:55	30.6	30.6	30.6	90	28.0	0	1	315	0.00	30.135 
22:00	30.6	30.6	30.6	90	28.0	0	2	315	0.00	30.133 
22:05	30.6	30.6	30.6	90	28.0	0	0	---	0.00	30.133 
22:10	30.6	30.6	30.6	90	28.0	0	2	315	0.00	30.133 
22:15	30.6	30.6	30.6	90	28.0	0	2	315	0.00	30.138 
22:20	30.6	30.6	30.6	90	28.0	0	2	315	0.00	30.138 
22:25	30.6	30.6	30.6	89	27.8	0	2	315	0.00	30.138 
22:30	30.6	30.6	30.6	89	27.8	0	2	315	0.00	30.136 
22:35	30.6	30.6	30.6	89	27.8	0	2	315	0.00	30.136 
22:40	30.6	30.6	30.6	89	27.8	0	3	315	0.00	30.136 
22:45	30.6	30.6	30.6	89	27.8	0	2	315	0.00	30.135 
22:50	30.6	30.6	30.6	89	27.8	0	2	315	0.00	30.135 
22:55	30.7	30.7	30.7	89	27.8	0	2	315	0.00	30.135 
23:00	30.7	30.7	30.7	89	27.8	0	1	315	0.00	30.141 
23:05	30.7	30.7	30.7	88	27.6	0	3	315	0.00	30.141 
23:10	30.6	30.6	30.6	88	27.5	1	2	315	0.00	30.141 
23:15	30.6	30.6	30.6	88	27.5	0	2	315	0.00	30.138 
23:20	30.6	30.6	30.6	88	27.5	0	1	315	0.00	30.138 
23:25	30.6	30.6	30.6	88	27.5	0	3	338	0.00	30.138 
23:30	30.4	30.4	30.4	88	27.3	0	3	338	0.00	30.135 
23:35	30.4	30.4	30.4	88	27.3	0	2	225	0.00	30.135 
23:40	30.3	30.3	30.3	88	27.2	0	3	225	0.00	30.135 
23:45	30.3	30.3	30.3	88	27.2	0	2	0	0.00	30.136 
23:50	30.1	30.1	30.1	88	27.0	0	1	0	0.00	30.136 
23:55	30.1	30.1	30.1	87	26.7	0	2	0	0.00	30.136 

CoCoRaHS
IN-AL-39
A2 Web Hosting
Creative Commons License
GoDaddy
search engine by freefind advanced

loaded 2018-11-12 19:28:24 • last modified 2010-11-18 10:43:29
Privacy PolicyDisclaimer
• wx.awcolley.com is powered by PmWiki v.2002016 •
• all content (unless otherwise noted) © 2018 A W Colley